sensor_id;sensor_type;location;lat;lon;timestamp;P1;durP1;ratioP1;P2;durP2;ratioP2
16854;SDS011;8543;54.522;18.550;2022-08-19T00:00:14;10.40;;;9.20;;
16854;SDS011;8543;54.522;18.550;2022-08-19T00:02:40;13.00;;;8.80;;
16854;SDS011;8543;54.522;18.550;2022-08-19T00:05:07;11.10;;;8.50;;
16854;SDS011;8543;54.522;18.550;2022-08-19T00:07:33;11.70;;;9.90;;
16854;SDS011;8543;54.522;18.550;2022-08-19T00:09:58;14.70;;;9.20;;
16854;SDS011;8543;54.522;18.550;2022-08-19T00:12:24;11.50;;;9.60;;
16854;SDS011;8543;54.522;18.550;2022-08-19T00:14:49;13.80;;;9.30;;
16854;SDS011;8543;54.522;18.550;2022-08-19T00:17:14;14.10;;;9.40;;
16854;SDS011;8543;54.522;18.550;2022-08-19T00:19:40;12.30;;;9.60;;
16854;SDS011;8543;54.522;18.550;2022-08-19T00:22:06;12.40;;;9.10;;
16854;SDS011;8543;54.522;18.550;2022-08-19T00:24:33;14.40;;;9.50;;
16854;SDS011;8543;54.522;18.550;2022-08-19T00:27:00;12.60;;;9.40;;
16854;SDS011;8543;54.522;18.550;2022-08-19T00:29:26;14.50;;;9.50;;
16854;SDS011;8543;54.522;18.550;2022-08-19T00:31:53;13.50;;;9.90;;
16854;SDS011;8543;54.522;18.550;2022-08-19T00:34:21;13.90;;;10.00;;
16854;SDS011;8543;54.522;18.550;2022-08-19T00:36:47;16.80;;;10.10;;
16854;SDS011;8543;54.522;18.550;2022-08-19T00:39:13;13.80;;;9.90;;
16854;SDS011;8543;54.522;18.550;2022-08-19T00:41:41;12.30;;;9.50;;
16854;SDS011;8543;54.522;18.550;2022-08-19T00:44:11;13.50;;;9.50;;
16854;SDS011;8543;54.522;18.550;2022-08-19T00:46:43;14.60;;;9.70;;
16854;SDS011;8543;54.522;18.550;2022-08-19T00:51:42;13.50;;;9.90;;
16854;SDS011;8543;54.522;18.550;2022-08-19T00:54:10;14.80;;;9.90;;
16854;SDS011;8543;54.522;18.550;2022-08-19T00:56:36;15.20;;;10.70;;
16854;SDS011;8543;54.522;18.550;2022-08-19T00:59:01;14.70;;;9.70;;
16854;SDS011;8543;54.522;18.550;2022-08-19T01:01:28;13.90;;;10.00;;
16854;SDS011;8543;54.522;18.550;2022-08-19T01:03:54;14.10;;;9.20;;
16854;SDS011;8543;54.522;18.550;2022-08-19T01:06:19;10.70;;;9.00;;
16854;SDS011;8543;54.522;18.550;2022-08-19T01:08:45;14.30;;;9.50;;
16854;SDS011;8543;54.522;18.550;2022-08-19T01:11:11;14.80;;;9.00;;
16854;SDS011;8543;54.522;18.550;2022-08-19T01:13:37;10.50;;;8.80;;
16854;SDS011;8543;54.522;18.550;2022-08-19T01:16:08;11.70;;;9.10;;
16854;SDS011;8543;54.522;18.550;2022-08-19T01:18:35;12.50;;;10.00;;
16854;SDS011;8543;54.522;18.550;2022-08-19T01:21:05;12.00;;;9.00;;
16854;SDS011;8543;54.522;18.550;2022-08-19T01:23:34;12.90;;;10.10;;
16854;SDS011;8543;54.522;18.550;2022-08-19T01:26:16;13.60;;;10.70;;
16854;SDS011;8543;54.522;18.550;2022-08-19T01:28:44;15.90;;;10.70;;
16854;SDS011;8543;54.522;18.550;2022-08-19T01:31:13;14.50;;;10.20;;
16854;SDS011;8543;54.522;18.550;2022-08-19T01:33:43;13.90;;;10.40;;
16854;SDS011;8543;54.522;18.550;2022-08-19T01:36:11;13.40;;;10.30;;
16854;SDS011;8543;54.522;18.550;2022-08-19T01:38:39;12.40;;;9.70;;
16854;SDS011;8543;54.522;18.550;2022-08-19T01:41:07;13.60;;;10.60;;
16854;SDS011;8543;54.522;18.550;2022-08-19T01:43:33;13.50;;;10.50;;
16854;SDS011;8543;54.522;18.550;2022-08-19T01:45:59;15.00;;;11.30;;
16854;SDS011;8543;54.522;18.550;2022-08-19T01:48:24;15.80;;;10.80;;
16854;SDS011;8543;54.522;18.550;2022-08-19T01:50:49;12.40;;;11.10;;
16854;SDS011;8543;54.522;18.550;2022-08-19T01:53:15;12.40;;;10.50;;
16854;SDS011;8543;54.522;18.550;2022-08-19T01:55:42;14.10;;;10.80;;
16854;SDS011;8543;54.522;18.550;2022-08-19T01:58:20;17.10;;;11.40;;
16854;SDS011;8543;54.522;18.550;2022-08-19T02:00:48;13.00;;;10.60;;
16854;SDS011;8543;54.522;18.550;2022-08-19T02:03:13;14.50;;;11.00;;
16854;SDS011;8543;54.522;18.550;2022-08-19T02:05:39;11.60;;;10.40;;
16854;SDS011;8543;54.522;18.550;2022-08-19T02:08:06;11.50;;;9.90;;
16854;SDS011;8543;54.522;18.550;2022-08-19T02:10:32;14.30;;;10.40;;
16854;SDS011;8543;54.522;18.550;2022-08-19T02:12:58;14.40;;;11.00;;
16854;SDS011;8543;54.522;18.550;2022-08-19T02:15:24;17.60;;;11.40;;
16854;SDS011;8543;54.522;18.550;2022-08-19T02:17:51;15.60;;;11.40;;
16854;SDS011;8543;54.522;18.550;2022-08-19T02:20:16;14.50;;;10.40;;
16854;SDS011;8543;54.522;18.550;2022-08-19T02:22:42;12.10;;;10.30;;
16854;SDS011;8543;54.522;18.550;2022-08-19T02:25:11;15.10;;;11.20;;
16854;SDS011;8543;54.522;18.550;2022-08-19T02:27:39;15.10;;;10.20;;
16854;SDS011;8543;54.522;18.550;2022-08-19T02:30:07;14.40;;;10.30;;
16854;SDS011;8543;54.522;18.550;2022-08-19T02:32:36;14.80;;;10.40;;
16854;SDS011;8543;54.522;18.550;2022-08-19T02:35:02;12.80;;;11.30;;
16854;SDS011;8543;54.522;18.550;2022-08-19T02:37:30;16.20;;;11.40;;
16854;SDS011;8543;54.522;18.550;2022-08-19T02:40:14;13.30;;;11.40;;
16854;SDS011;8543;54.522;18.550;2022-08-19T02:42:40;15.70;;;11.40;;
16854;SDS011;8543;54.522;18.550;2022-08-19T02:45:06;12.60;;;10.70;;
16854;SDS011;8543;54.522;18.550;2022-08-19T02:47:32;12.30;;;10.70;;
16854;SDS011;8543;54.522;18.550;2022-08-19T02:49:59;13.80;;;11.00;;
16854;SDS011;8543;54.522;18.550;2022-08-19T02:52:26;15.40;;;12.20;;
16854;SDS011;8543;54.522;18.550;2022-08-19T02:54:52;17.50;;;11.30;;
16854;SDS011;8543;54.522;18.550;2022-08-19T02:57:18;13.40;;;10.90;;
16854;SDS011;8543;54.522;18.550;2022-08-19T02:59:43;13.50;;;11.90;;
16854;SDS011;8543;54.522;18.550;2022-08-19T03:02:09;14.60;;;12.30;;
16854;SDS011;8543;54.522;18.550;2022-08-19T03:04:34;20.40;;;13.40;;
16854;SDS011;8543;54.522;18.550;2022-08-19T03:06:59;15.70;;;12.30;;
16854;SDS011;8543;54.522;18.550;2022-08-19T03:09:25;15.70;;;12.00;;
16854;SDS011;8543;54.522;18.550;2022-08-19T03:11:50;16.50;;;12.80;;
16854;SDS011;8543;54.522;18.550;2022-08-19T03:14:16;19.00;;;14.10;;
16854;SDS011;8543;54.522;18.550;2022-08-19T03:16:48;15.00;;;12.50;;
16854;SDS011;8543;54.522;18.550;2022-08-19T03:19:15;17.00;;;10.90;;
16854;SDS011;8543;54.522;18.550;2022-08-19T03:21:43;15.50;;;11.30;;
16854;SDS011;8543;54.522;18.550;2022-08-19T03:24:11;12.70;;;11.20;;
16854;SDS011;8543;54.522;18.550;2022-08-19T03:26:38;16.90;;;11.50;;
16854;SDS011;8543;54.522;18.550;2022-08-19T03:29:05;16.70;;;12.90;;
16854;SDS011;8543;54.522;18.550;2022-08-19T03:31:31;15.90;;;12.80;;
16854;SDS011;8543;54.522;18.550;2022-08-19T03:33:57;18.90;;;13.50;;
16854;SDS011;8543;54.522;18.550;2022-08-19T03:36:23;19.70;;;13.50;;
16854;SDS011;8543;54.522;18.550;2022-08-19T03:38:53;19.00;;;13.30;;
16854;SDS011;8543;54.522;18.550;2022-08-19T03:41:21;18.70;;;12.70;;
16854;SDS011;8543;54.522;18.550;2022-08-19T03:43:48;17.10;;;12.50;;
16854;SDS011;8543;54.522;18.550;2022-08-19T03:46:17;18.30;;;13.00;;
16854;SDS011;8543;54.522;18.550;2022-08-19T03:48:46;20.30;;;13.50;;
16854;SDS011;8543;54.522;18.550;2022-08-19T03:51:19;17.80;;;12.40;;
16854;SDS011;8543;54.522;18.550;2022-08-19T03:53:50;16.10;;;12.40;;
16854;SDS011;8543;54.522;18.550;2022-08-19T03:56:16;14.80;;;12.60;;
16854;SDS011;8543;54.522;18.550;2022-08-19T03:58:42;16.20;;;13.10;;
16854;SDS011;8543;54.522;18.550;2022-08-19T04:01:12;17.90;;;14.20;;
16854;SDS011;8543;54.522;18.550;2022-08-19T04:03:43;16.60;;;14.70;;
16854;SDS011;8543;54.522;18.550;2022-08-19T04:06:12;19.10;;;14.70;;
16854;SDS011;8543;54.522;18.550;2022-08-19T04:08:40;21.70;;;13.90;;
16854;SDS011;8543;54.522;18.550;2022-08-19T04:11:10;19.50;;;14.20;;
16854;SDS011;8543;54.522;18.550;2022-08-19T04:13:37;22.80;;;14.60;;
16854;SDS011;8543;54.522;18.550;2022-08-19T04:16:03;17.20;;;13.90;;
16854;SDS011;8543;54.522;18.550;2022-08-19T04:18:29;18.30;;;15.10;;
16854;SDS011;8543;54.522;18.550;2022-08-19T04:20:55;19.30;;;15.70;;
16854;SDS011;8543;54.522;18.550;2022-08-19T04:23:22;20.30;;;16.70;;
16854;SDS011;8543;54.522;18.550;2022-08-19T04:25:48;20.40;;;15.40;;
16854;SDS011;8543;54.522;18.550;2022-08-19T04:28:13;17.20;;;15.40;;
16854;SDS011;8543;54.522;18.550;2022-08-19T04:30:40;20.00;;;15.60;;
16854;SDS011;8543;54.522;18.550;2022-08-19T04:33:08;19.50;;;16.50;;
16854;SDS011;8543;54.522;18.550;2022-08-19T04:35:38;20.80;;;15.70;;
16854;SDS011;8543;54.522;18.550;2022-08-19T04:38:05;19.20;;;15.80;;
16854;SDS011;8543;54.522;18.550;2022-08-19T04:40:30;21.90;;;16.00;;
16854;SDS011;8543;54.522;18.550;2022-08-19T04:43:15;15.90;;;13.80;;
16854;SDS011;8543;54.522;18.550;2022-08-19T04:45:44;15.90;;;13.40;;
16854;SDS011;8543;54.522;18.550;2022-08-19T04:48:10;16.50;;;14.50;;
16854;SDS011;8543;54.522;18.550;2022-08-19T04:50:39;19.30;;;14.40;;
16854;SDS011;8543;54.522;18.550;2022-08-19T04:53:06;18.80;;;14.80;;
16854;SDS011;8543;54.522;18.550;2022-08-19T04:55:31;19.90;;;14.90;;
16854;SDS011;8543;54.522;18.550;2022-08-19T04:57:57;17.10;;;14.30;;
16854;SDS011;8543;54.522;18.550;2022-08-19T05:00:22;17.20;;;13.40;;
16854;SDS011;8543;54.522;18.550;2022-08-19T05:02:49;16.60;;;13.40;;
16854;SDS011;8543;54.522;18.550;2022-08-19T05:05:15;15.10;;;13.40;;
16854;SDS011;8543;54.522;18.550;2022-08-19T05:07:40;15.90;;;14.20;;
16854;SDS011;8543;54.522;18.550;2022-08-19T05:10:06;21.70;;;15.60;;
16854;SDS011;8543;54.522;18.550;2022-08-19T05:12:32;16.70;;;14.40;;
16854;SDS011;8543;54.522;18.550;2022-08-19T05:14:57;19.70;;;15.20;;
16854;SDS011;8543;54.522;18.550;2022-08-19T05:17:23;19.10;;;13.90;;
16854;SDS011;8543;54.522;18.550;2022-08-19T05:19:50;13.90;;;12.50;;
16854;SDS011;8543;54.522;18.550;2022-08-19T05:22:34;15.80;;;13.90;;
16854;SDS011;8543;54.522;18.550;2022-08-19T05:25:11;19.50;;;13.20;;
16854;SDS011;8543;54.522;18.550;2022-08-19T05:27:40;16.90;;;12.70;;
16854;SDS011;8543;54.522;18.550;2022-08-19T05:30:06;13.50;;;12.20;;
16854;SDS011;8543;54.522;18.550;2022-08-19T05:32:32;17.80;;;13.30;;
16854;SDS011;8543;54.522;18.550;2022-08-19T05:34:57;14.40;;;12.50;;
16854;SDS011;8543;54.522;18.550;2022-08-19T05:37:23;14.90;;;12.50;;
16854;SDS011;8543;54.522;18.550;2022-08-19T05:39:51;16.70;;;13.50;;
16854;SDS011;8543;54.522;18.550;2022-08-19T05:42:17;18.40;;;14.40;;
16854;SDS011;8543;54.522;18.550;2022-08-19T05:44:45;14.90;;;12.50;;
16854;SDS011;8543;54.522;18.550;2022-08-19T05:47:12;19.00;;;14.10;;
16854;SDS011;8543;54.522;18.550;2022-08-19T05:49:38;15.70;;;14.20;;
16854;SDS011;8543;54.522;18.550;2022-08-19T05:52:05;14.50;;;12.70;;
16854;SDS011;8543;54.522;18.550;2022-08-19T05:54:32;14.10;;;12.70;;
16854;SDS011;8543;54.522;18.550;2022-08-19T05:56:58;18.30;;;15.70;;
16854;SDS011;8543;54.522;18.550;2022-08-19T05:59:23;17.50;;;15.60;;
16854;SDS011;8543;54.522;18.550;2022-08-19T06:01:49;12.20;;;11.10;;
16854;SDS011;8543;54.522;18.550;2022-08-19T06:04:19;11.20;;;10.10;;
16854;SDS011;8543;54.522;18.550;2022-08-19T06:06:46;14.10;;;12.10;;
16854;SDS011;8543;54.522;18.550;2022-08-19T06:09:12;11.60;;;10.40;;
16854;SDS011;8543;54.522;18.550;2022-08-19T06:11:39;11.90;;;10.70;;
16854;SDS011;8543;54.522;18.550;2022-08-19T06:14:13;12.70;;;11.30;;
16854;SDS011;8543;54.522;18.550;2022-08-19T06:16:41;14.30;;;11.30;;
16854;SDS011;8543;54.522;18.550;2022-08-19T06:19:08;15.90;;;10.20;;
16854;SDS011;8543;54.522;18.550;2022-08-19T06:21:36;11.10;;;10.00;;
16854;SDS011;8543;54.522;18.550;2022-08-19T06:24:04;12.00;;;10.60;;
16854;SDS011;8543;54.522;18.550;2022-08-19T06:26:31;11.90;;;10.70;;
16854;SDS011;8543;54.522;18.550;2022-08-19T06:28:56;10.20;;;9.30;;
16854;SDS011;8543;54.522;18.550;2022-08-19T06:31:25;10.20;;;9.20;;
16854;SDS011;8543;54.522;18.550;2022-08-19T06:33:52;10.70;;;9.40;;
16854;SDS011;8543;54.522;18.550;2022-08-19T06:36:18;10.90;;;9.90;;
16854;SDS011;8543;54.522;18.550;2022-08-19T06:38:44;11.50;;;10.40;;
16854;SDS011;8543;54.522;18.550;2022-08-19T06:41:10;12.00;;;10.50;;
16854;SDS011;8543;54.522;18.550;2022-08-19T06:43:36;12.20;;;10.10;;
16854;SDS011;8543;54.522;18.550;2022-08-19T06:46:02;10.70;;;9.60;;
16854;SDS011;8543;54.522;18.550;2022-08-19T06:48:28;13.40;;;9.70;;
16854;SDS011;8543;54.522;18.550;2022-08-19T06:50:54;10.40;;;9.40;;
16854;SDS011;8543;54.522;18.550;2022-08-19T06:53:21;12.90;;;10.70;;
16854;SDS011;8543;54.522;18.550;2022-08-19T06:55:47;11.10;;;10.00;;
16854;SDS011;8543;54.522;18.550;2022-08-19T06:58:12;12.10;;;10.30;;
16854;SDS011;8543;54.522;18.550;2022-08-19T07:00:38;13.90;;;11.20;;
16854;SDS011;8543;54.522;18.550;2022-08-19T07:03:04;10.80;;;9.60;;
16854;SDS011;8543;54.522;18.550;2022-08-19T07:05:29;11.10;;;9.30;;
16854;SDS011;8543;54.522;18.550;2022-08-19T07:07:55;11.00;;;9.30;;
16854;SDS011;8543;54.522;18.550;2022-08-19T07:10:21;12.50;;;10.60;;
16854;SDS011;8543;54.522;18.550;2022-08-19T07:12:47;11.40;;;10.20;;
16854;SDS011;8543;54.522;18.550;2022-08-19T07:15:14;13.20;;;11.80;;
16854;SDS011;8543;54.522;18.550;2022-08-19T07:17:40;12.00;;;10.80;;
16854;SDS011;8543;54.522;18.550;2022-08-19T07:20:08;12.50;;;10.30;;
16854;SDS011;8543;54.522;18.550;2022-08-19T07:22:34;12.60;;;11.30;;
16854;SDS011;8543;54.522;18.550;2022-08-19T07:25:00;12.50;;;11.30;;
16854;SDS011;8543;54.522;18.550;2022-08-19T07:27:27;12.80;;;10.70;;
16854;SDS011;8543;54.522;18.550;2022-08-19T07:29:53;13.40;;;10.70;;
16854;SDS011;8543;54.522;18.550;2022-08-19T07:32:18;16.10;;;11.70;;
16854;SDS011;8543;54.522;18.550;2022-08-19T07:34:43;12.20;;;11.00;;
16854;SDS011;8543;54.522;18.550;2022-08-19T07:37:10;12.40;;;10.90;;
16854;SDS011;8543;54.522;18.550;2022-08-19T07:39:36;12.70;;;11.50;;
16854;SDS011;8543;54.522;18.550;2022-08-19T07:42:04;12.90;;;11.00;;
16854;SDS011;8543;54.522;18.550;2022-08-19T07:44:32;12.20;;;11.10;;
16854;SDS011;8543;54.522;18.550;2022-08-19T07:46:59;13.90;;;11.80;;
16854;SDS011;8543;54.522;18.550;2022-08-19T07:49:25;14.80;;;12.70;;
16854;SDS011;8543;54.522;18.550;2022-08-19T07:51:52;12.70;;;11.40;;
16854;SDS011;8543;54.522;18.550;2022-08-19T07:54:23;13.40;;;11.60;;
16854;SDS011;8543;54.522;18.550;2022-08-19T07:56:49;14.70;;;11.60;;
16854;SDS011;8543;54.522;18.550;2022-08-19T07:59:16;15.50;;;11.40;;
16854;SDS011;8543;54.522;18.550;2022-08-19T08:01:42;14.10;;;12.10;;
16854;SDS011;8543;54.522;18.550;2022-08-19T08:04:09;13.70;;;12.30;;
16854;SDS011;8543;54.522;18.550;2022-08-19T08:06:53;13.90;;;11.50;;
16854;SDS011;8543;54.522;18.550;2022-08-19T08:09:39;13.50;;;12.10;;
16854;SDS011;8543;54.522;18.550;2022-08-19T08:14:41;15.80;;;12.00;;
16854;SDS011;8543;54.522;18.550;2022-08-19T08:17:13;14.90;;;12.00;;
16854;SDS011;8543;54.522;18.550;2022-08-19T08:19:40;13.60;;;12.20;;
16854;SDS011;8543;54.522;18.550;2022-08-19T08:22:06;16.90;;;12.50;;
16854;SDS011;8543;54.522;18.550;2022-08-19T08:24:32;15.30;;;12.90;;
16854;SDS011;8543;54.522;18.550;2022-08-19T08:26:59;13.70;;;12.20;;
16854;SDS011;8543;54.522;18.550;2022-08-19T08:29:28;14.90;;;12.80;;
16854;SDS011;8543;54.522;18.550;2022-08-19T08:31:55;14.90;;;13.00;;
16854;SDS011;8543;54.522;18.550;2022-08-19T08:34:20;13.40;;;11.90;;
16854;SDS011;8543;54.522;18.550;2022-08-19T08:36:46;12.30;;;11.00;;
16854;SDS011;8543;54.522;18.550;2022-08-19T08:39:16;15.90;;;12.60;;
16854;SDS011;8543;54.522;18.550;2022-08-19T08:44:15;12.30;;;11.10;;
16854;SDS011;8543;54.522;18.550;2022-08-19T08:46:47;13.60;;;12.20;;
16854;SDS011;8543;54.522;18.550;2022-08-19T08:49:26;15.00;;;12.70;;
16854;SDS011;8543;54.522;18.550;2022-08-19T08:51:59;16.70;;;13.30;;
16854;SDS011;8543;54.522;18.550;2022-08-19T08:57:07;12.90;;;11.50;;
16854;SDS011;8543;54.522;18.550;2022-08-19T08:59:41;13.00;;;11.80;;
16854;SDS011;8543;54.522;18.550;2022-08-19T09:02:08;14.10;;;11.90;;
16854;SDS011;8543;54.522;18.550;2022-08-19T09:04:37;15.30;;;12.80;;
16854;SDS011;8543;54.522;18.550;2022-08-19T09:10:02;13.80;;;11.10;;
16854;SDS011;8543;54.522;18.550;2022-08-19T09:12:40;13.60;;;12.20;;
16854;SDS011;8543;54.522;18.550;2022-08-19T09:15:39;15.90;;;12.00;;
16854;SDS011;8543;54.522;18.550;2022-08-19T09:18:09;11.20;;;10.10;;
16854;SDS011;8543;54.522;18.550;2022-08-19T09:20:35;12.00;;;10.80;;
16854;SDS011;8543;54.522;18.550;2022-08-19T09:23:01;11.80;;;10.50;;
16854;SDS011;8543;54.522;18.550;2022-08-19T09:25:27;12.50;;;10.50;;
16854;SDS011;8543;54.522;18.550;2022-08-19T09:27:53;11.40;;;9.40;;
16854;SDS011;8543;54.522;18.550;2022-08-19T09:30:23;11.50;;;8.90;;
16854;SDS011;8543;54.522;18.550;2022-08-19T09:32:52;10.60;;;8.90;;
16854;SDS011;8543;54.522;18.550;2022-08-19T09:35:18;9.70;;;8.70;;
16854;SDS011;8543;54.522;18.550;2022-08-19T09:37:47;10.00;;;8.10;;
16854;SDS011;8543;54.522;18.550;2022-08-19T09:40:13;9.70;;;8.60;;
16854;SDS011;8543;54.522;18.550;2022-08-19T09:42:40;11.40;;;8.90;;
16854;SDS011;8543;54.522;18.550;2022-08-19T09:45:06;10.30;;;8.50;;
16854;SDS011;8543;54.522;18.550;2022-08-19T09:47:32;9.10;;;7.90;;
16854;SDS011;8543;54.522;18.550;2022-08-19T09:50:03;9.30;;;8.30;;
16854;SDS011;8543;54.522;18.550;2022-08-19T09:52:32;12.30;;;9.20;;
16854;SDS011;8543;54.522;18.550;2022-08-19T09:54:57;11.70;;;8.50;;
16854;SDS011;8543;54.522;18.550;2022-08-19T09:57:23;16.10;;;9.80;;
16854;SDS011;8543;54.522;18.550;2022-08-19T09:59:48;10.00;;;7.60;;
16854;SDS011;8543;54.522;18.550;2022-08-19T10:02:14;13.30;;;9.20;;
16854;SDS011;8543;54.522;18.550;2022-08-19T10:04:39;11.30;;;8.20;;
16854;SDS011;8543;54.522;18.550;2022-08-19T10:07:25;8.90;;;7.50;;
16854;SDS011;8543;54.522;18.550;2022-08-19T10:09:50;10.70;;;7.70;;
16854;SDS011;8543;54.522;18.550;2022-08-19T10:12:15;9.40;;;7.30;;
16854;SDS011;8543;54.522;18.550;2022-08-19T10:14:41;10.90;;;7.70;;
16854;SDS011;8543;54.522;18.550;2022-08-19T10:17:08;12.70;;;7.80;;
16854;SDS011;8543;54.522;18.550;2022-08-19T10:19:33;10.60;;;7.80;;
16854;SDS011;8543;54.522;18.550;2022-08-19T10:22:05;10.60;;;8.10;;
16854;SDS011;8543;54.522;18.550;2022-08-19T10:24:32;9.40;;;8.00;;
16854;SDS011;8543;54.522;18.550;2022-08-19T10:26:59;8.30;;;7.20;;
16854;SDS011;8543;54.522;18.550;2022-08-19T10:29:25;9.70;;;7.90;;
16854;SDS011;8543;54.522;18.550;2022-08-19T10:31:53;11.40;;;8.20;;
16854;SDS011;8543;54.522;18.550;2022-08-19T10:34:18;9.70;;;8.70;;
16854;SDS011;8543;54.522;18.550;2022-08-19T10:36:44;9.50;;;8.20;;
16854;SDS011;8543;54.522;18.550;2022-08-19T10:39:10;9.40;;;8.40;;
16854;SDS011;8543;54.522;18.550;2022-08-19T10:41:38;9.40;;;7.70;;
16854;SDS011;8543;54.522;18.550;2022-08-19T10:44:05;10.70;;;8.20;;
16854;SDS011;8543;54.522;18.550;2022-08-19T10:46:33;11.30;;;8.60;;
16854;SDS011;8543;54.522;18.550;2022-08-19T10:49:02;13.00;;;8.80;;
16854;SDS011;8543;54.522;18.550;2022-08-19T10:51:28;9.50;;;8.50;;
16854;SDS011;8543;54.522;18.550;2022-08-19T10:56:39;9.80;;;8.20;;
16854;SDS011;8543;54.522;18.550;2022-08-19T10:59:26;10.20;;;8.10;;
16854;SDS011;8543;54.522;18.550;2022-08-19T11:01:54;10.90;;;8.30;;
16854;SDS011;8543;54.522;18.550;2022-08-19T11:04:23;10.80;;;9.30;;
16854;SDS011;8543;54.522;18.550;2022-08-19T11:06:49;12.40;;;8.50;;
16854;SDS011;8543;54.522;18.550;2022-08-19T11:09:15;12.70;;;8.40;;
16854;SDS011;8543;54.522;18.550;2022-08-19T11:11:42;9.00;;;8.10;;
16854;SDS011;8543;54.522;18.550;2022-08-19T11:14:08;12.50;;;7.70;;
16854;SDS011;8543;54.522;18.550;2022-08-19T11:16:36;9.40;;;8.50;;
16854;SDS011;8543;54.522;18.550;2022-08-19T11:19:05;10.00;;;8.10;;
16854;SDS011;8543;54.522;18.550;2022-08-19T11:21:34;11.70;;;8.50;;
16854;SDS011;8543;54.522;18.550;2022-08-19T11:24:03;12.20;;;8.60;;
16854;SDS011;8543;54.522;18.550;2022-08-19T11:26:31;10.10;;;8.10;;
16854;SDS011;8543;54.522;18.550;2022-08-19T11:28:59;11.30;;;8.30;;
16854;SDS011;8543;54.522;18.550;2022-08-19T11:31:26;10.50;;;8.60;;
16854;SDS011;8543;54.522;18.550;2022-08-19T11:33:57;13.10;;;8.80;;
16854;SDS011;8543;54.522;18.550;2022-08-19T11:36:24;12.40;;;8.20;;
16854;SDS011;8543;54.522;18.550;2022-08-19T11:38:50;9.90;;;8.20;;
16854;SDS011;8543;54.522;18.550;2022-08-19T11:41:17;9.90;;;8.70;;
16854;SDS011;8543;54.522;18.550;2022-08-19T11:43:44;9.70;;;8.30;;
16854;SDS011;8543;54.522;18.550;2022-08-19T11:46:10;9.70;;;8.30;;
16854;SDS011;8543;54.522;18.550;2022-08-19T11:48:37;11.10;;;8.50;;
16854;SDS011;8543;54.522;18.550;2022-08-19T11:51:10;10.80;;;8.50;;
16854;SDS011;8543;54.522;18.550;2022-08-19T11:53:38;10.80;;;9.10;;
16854;SDS011;8543;54.522;18.550;2022-08-19T11:56:04;10.10;;;8.40;;
16854;SDS011;8543;54.522;18.550;2022-08-19T11:58:30;11.80;;;8.60;;
16854;SDS011;8543;54.522;18.550;2022-08-19T12:00:56;10.10;;;8.70;;
16854;SDS011;8543;54.522;18.550;2022-08-19T12:03:22;11.00;;;8.80;;
16854;SDS011;8543;54.522;18.550;2022-08-19T12:05:48;9.20;;;8.30;;
16854;SDS011;8543;54.522;18.550;2022-08-19T12:08:14;10.90;;;8.60;;
16854;SDS011;8543;54.522;18.550;2022-08-19T12:10:41;11.50;;;8.40;;
16854;SDS011;8543;54.522;18.550;2022-08-19T12:13:07;12.40;;;8.80;;
16854;SDS011;8543;54.522;18.550;2022-08-19T12:15:37;12.50;;;8.50;;
16854;SDS011;8543;54.522;18.550;2022-08-19T12:18:05;10.50;;;8.60;;
16854;SDS011;8543;54.522;18.550;2022-08-19T12:20:32;11.20;;;8.20;;
16854;SDS011;8543;54.522;18.550;2022-08-19T12:23:00;10.50;;;8.80;;
16854;SDS011;8543;54.522;18.550;2022-08-19T12:25:25;10.00;;;9.00;;
16854;SDS011;8543;54.522;18.550;2022-08-19T12:27:51;9.40;;;8.30;;
16854;SDS011;8543;54.522;18.550;2022-08-19T12:30:16;11.00;;;8.60;;
16854;SDS011;8543;54.522;18.550;2022-08-19T12:32:42;9.10;;;7.80;;
16854;SDS011;8543;54.522;18.550;2022-08-19T12:35:07;11.10;;;9.30;;
16854;SDS011;8543;54.522;18.550;2022-08-19T12:37:36;13.40;;;9.10;;
16854;SDS011;8543;54.522;18.550;2022-08-19T12:40:02;10.80;;;8.40;;
16854;SDS011;8543;54.522;18.550;2022-08-19T12:42:28;10.50;;;8.90;;
16854;SDS011;8543;54.522;18.550;2022-08-19T12:44:55;13.10;;;8.60;;
16854;SDS011;8543;54.522;18.550;2022-08-19T12:47:20;11.00;;;8.30;;
16854;SDS011;8543;54.522;18.550;2022-08-19T12:49:46;10.90;;;8.10;;
16854;SDS011;8543;54.522;18.550;2022-08-19T12:52:13;11.50;;;8.60;;
16854;SDS011;8543;54.522;18.550;2022-08-19T12:54:41;10.80;;;9.20;;
16854;SDS011;8543;54.522;18.550;2022-08-19T12:57:08;10.80;;;8.40;;
16854;SDS011;8543;54.522;18.550;2022-08-19T12:59:35;9.40;;;8.50;;
16854;SDS011;8543;54.522;18.550;2022-08-19T13:02:02;9.80;;;8.70;;
16854;SDS011;8543;54.522;18.550;2022-08-19T13:04:30;12.50;;;8.20;;
16854;SDS011;8543;54.522;18.550;2022-08-19T13:06:56;10.00;;;8.30;;
16854;SDS011;8543;54.522;18.550;2022-08-19T13:09:23;12.50;;;8.40;;
16854;SDS011;8543;54.522;18.550;2022-08-19T13:11:48;11.60;;;8.00;;
16854;SDS011;8543;54.522;18.550;2022-08-19T13:14:14;10.90;;;8.40;;
16854;SDS011;8543;54.522;18.550;2022-08-19T13:16:39;9.80;;;8.10;;
16854;SDS011;8543;54.522;18.550;2022-08-19T13:19:06;10.90;;;7.70;;
16854;SDS011;8543;54.522;18.550;2022-08-19T13:21:32;8.60;;;7.70;;
16854;SDS011;8543;54.522;18.550;2022-08-19T13:23:57;11.40;;;8.40;;
16854;SDS011;8543;54.522;18.550;2022-08-19T13:26:23;12.20;;;8.40;;
16854;SDS011;8543;54.522;18.550;2022-08-19T13:28:49;10.10;;;8.30;;
16854;SDS011;8543;54.522;18.550;2022-08-19T13:31:34;10.80;;;7.80;;
16854;SDS011;8543;54.522;18.550;2022-08-19T13:34:24;11.70;;;8.20;;
16854;SDS011;8543;54.522;18.550;2022-08-19T13:36:55;11.90;;;8.40;;
16854;SDS011;8543;54.522;18.550;2022-08-19T13:39:21;9.40;;;8.30;;
16854;SDS011;8543;54.522;18.550;2022-08-19T13:41:48;14.10;;;8.00;;
16854;SDS011;8543;54.522;18.550;2022-08-19T13:44:15;9.60;;;8.10;;
16854;SDS011;8543;54.522;18.550;2022-08-19T13:46:43;10.70;;;8.30;;
16854;SDS011;8543;54.522;18.550;2022-08-19T13:49:10;9.20;;;7.90;;
16854;SDS011;8543;54.522;18.550;2022-08-19T13:51:39;10.10;;;8.20;;
16854;SDS011;8543;54.522;18.550;2022-08-19T13:54:05;10.80;;;7.60;;
16854;SDS011;8543;54.522;18.550;2022-08-19T13:56:32;9.20;;;7.40;;
16854;SDS011;8543;54.522;18.550;2022-08-19T13:58:57;8.60;;;7.60;;
16854;SDS011;8543;54.522;18.550;2022-08-19T14:01:23;10.30;;;7.40;;
16854;SDS011;8543;54.522;18.550;2022-08-19T14:03:49;8.60;;;7.70;;
16854;SDS011;8543;54.522;18.550;2022-08-19T14:06:14;10.10;;;7.40;;
16854;SDS011;8543;54.522;18.550;2022-08-19T14:08:42;9.80;;;7.50;;
16854;SDS011;8543;54.522;18.550;2022-08-19T14:11:07;9.20;;;7.60;;
16854;SDS011;8543;54.522;18.550;2022-08-19T14:13:33;12.60;;;7.90;;
16854;SDS011;8543;54.522;18.550;2022-08-19T14:15:59;11.70;;;7.70;;
16854;SDS011;8543;54.522;18.550;2022-08-19T14:18:24;9.90;;;7.80;;
16854;SDS011;8543;54.522;18.550;2022-08-19T14:20:50;11.30;;;7.30;;
16854;SDS011;8543;54.522;18.550;2022-08-19T14:23:16;9.30;;;8.30;;
16854;SDS011;8543;54.522;18.550;2022-08-19T14:25:41;11.30;;;8.10;;
16854;SDS011;8543;54.522;18.550;2022-08-19T14:28:07;10.60;;;7.90;;
16854;SDS011;8543;54.522;18.550;2022-08-19T14:30:33;7.90;;;7.00;;
16854;SDS011;8543;54.522;18.550;2022-08-19T14:33:02;10.00;;;7.90;;
16854;SDS011;8543;54.522;18.550;2022-08-19T14:35:30;9.30;;;7.70;;
16854;SDS011;8543;54.522;18.550;2022-08-19T14:38:17;9.80;;;7.90;;
16854;SDS011;8543;54.522;18.550;2022-08-19T14:40:43;9.40;;;7.40;;
16854;SDS011;8543;54.522;18.550;2022-08-19T14:43:09;11.60;;;7.40;;
16854;SDS011;8543;54.522;18.550;2022-08-19T14:45:36;11.60;;;7.60;;